Time;durP1;ratioP1;P1;durP2;ratioP2;P2;SDS_P1;SDS_P2;PMS_P1;PMS_P2;Temp;Humidity;BMP_temperature;BMP_pressure;BME280_temperature;BME280_humidity;BME280_pressure;Samples;Min_cycle;Max_cycle;Signal;HPM_P1;HPM_P2
2021/07/18 00:00:55;;;;;;;5.65;2.40;;;;;;;25.54;42.15;93832.09;2968568;40;20075;-69
2021/07/18 00:02:57;;;;;;;3.65;2.42;;;;;;;25.55;42.31;93825.63;2966877;40;20151;-68
2021/07/18 00:04:59;;;;;;;3.72;2.55;;;;;;;25.61;42.18;93831.81;2968935;40;20413;-69
2021/07/18 00:07:00;;;;;;;6.25;2.85;;;;;;;25.66;42.06;93829.91;2966346;40;20438;-69
2021/07/18 00:09:04;;;;;;;4.93;2.25;;;;;;;25.66;42.29;93821.03;2967686;40;20357;-70
2021/07/18 00:11:06;;;;;;;5.75;2.72;;;;;;;25.64;42.03;93825.88;2967111;40;20142;-69
2021/07/18 00:13:07;;;;;;;3.67;2.67;;;;;;;25.64;41.99;93824.03;2966840;40;20112;-69
2021/07/18 00:15:12;;;;;;;3.80;2.53;;;;;;;25.57;42.04;93825.38;2964956;40;20072;-69
2021/07/18 00:17:14;;;;;;;4.93;2.60;;;;;;;25.59;42.15;93818.66;2967647;40;20106;-70
2021/07/18 00:19:16;;;;;;;4.40;2.42;;;;;;;25.64;42.12;93821.34;2965708;40;20149;-84
2021/07/18 00:21:17;;;;;;;5.53;3.03;;;;;;;25.65;42.12;93824.81;2964837;40;20048;-68
2021/07/18 00:23:19;;;;;;;3.70;2.80;;;;;;;25.64;41.78;93829.38;2963977;40;20295;-70
2021/07/18 00:25:21;;;;;;;4.90;2.60;;;;;;;25.60;42.11;93822.97;2967884;40;20080;-68
2021/07/18 00:27:23;;;;;;;3.80;2.85;;;;;;;25.56;42.26;93813.06;2962241;40;20060;-66
2021/07/18 00:29:25;;;;;;;3.75;2.53;;;;;;;25.54;42.38;93826.72;2968406;40;20068;-68
2021/07/18 00:31:27;;;;;;;3.75;2.45;;;;;;;25.48;42.51;93823.25;2967776;40;20370;-68
2021/07/18 00:33:29;;;;;;;4.38;2.70;;;;;;;25.47;42.40;93827.03;2966797;40;20045;-68
2021/07/18 00:35:30;;;;;;;4.40;2.67;;;;;;;25.49;42.26;93824.06;2966676;40;20036;-79
2021/07/18 00:37:32;;;;;;;3.58;2.58;;;;;;;25.51;42.35;93819.22;2967973;40;20149;-81
2021/07/18 00:39:34;;;;;;;5.55;2.75;;;;;;;25.53;42.35;93823.25;2959772;40;20077;-81
2021/07/18 00:41:36;;;;;;;3.97;3.03;;;;;;;25.47;42.69;93820.88;2967854;40;20451;-81
2021/07/18 00:43:38;;;;;;;5.10;2.90;;;;;;;25.21;43.49;93820.09;2959529;40;20045;-81
2021/07/18 00:45:39;;;;;;;4.07;2.80;;;;;;;25.09;44.06;93820.38;2959097;40;20092;-80
2021/07/18 00:47:42;;;;;;;4.68;3.00;;;;;;;24.93;44.88;93817.72;2967468;40;20767;-81
2021/07/18 00:49:44;;;;;;;5.70;3.17;;;;;;;24.59;45.62;93816.69;2966504;40;20051;-80
2021/07/18 00:51:45;;;;;;;4.65;3.28;;;;;;;24.40;46.05;93830.56;2958296;40;20459;-80
2021/07/18 00:53:47;;;;;;;4.00;3.08;;;;;;;24.21;46.91;93832.94;2967570;40;20052;-80
2021/07/18 00:55:50;;;;;;;7.80;3.25;;;;;;;24.12;46.82;93831.84;2967125;40;20060;-82
2021/07/18 00:57:53;;;;;;;8.40;3.38;;;;;;;23.97;47.38;93827.25;2963462;40;20340;-81
2021/07/18 00:59:54;;;;;;;4.75;2.95;;;;;;;23.83;47.61;93828.81;2962588;40;20444;-82
2021/07/18 01:01:56;;;;;;;4.40;3.05;;;;;;;23.70;48.15;93825.56;2971544;40;20427;-82
2021/07/18 01:03:59;;;;;;;5.85;3.22;;;;;;;23.38;48.50;93820.34;2958232;40;20053;-81
2021/07/18 01:06:01;;;;;;;6.82;3.20;;;;;;;23.34;48.80;93818.41;2967260;40;20149;-69
2021/07/18 01:08:03;;;;;;;5.32;3.22;;;;;;;23.38;49.14;93820.34;2967291;40;20399;-69
2021/07/18 01:10:07;;;;;;;5.20;3.03;;;;;;;23.27;49.29;93816.81;2966573;40;20060;-68
2021/07/18 01:12:08;;;;;;;4.97;3.20;;;;;;;23.29;49.06;93817.31;2964199;40;20436;-69
2021/07/18 01:14:10;;;;;;;6.82;3.33;;;;;;;23.25;49.43;93824.28;2966365;40;20350;-68
2021/07/18 01:16:12;;;;;;;5.53;3.17;;;;;;;23.31;48.78;93809.06;2966291;40;20298;-69
2021/07/18 01:18:14;;;;;;;4.20;3.15;;;;;;;23.13;49.27;93821.00;2970110;40;20048;-69
2021/07/18 01:20:16;;;;;;;5.18;3.30;;;;;;;22.95;49.88;93826.72;2961288;40;20325;-68
2021/07/18 01:22:18;;;;;;;4.32;3.28;;;;;;;22.92;49.97;93822.69;2959531;40;20068;-68
2021/07/18 01:24:19;;;;;;;3.95;2.90;;;;;;;22.94;50.14;93817.91;2967610;40;20129;-69
2021/07/18 01:26:21;;;;;;;6.97;3.45;;;;;;;23.04;49.89;93817.22;2963439;40;20064;-68
2021/07/18 01:28:23;;;;;;;5.07;3.28;;;;;;;23.06;49.67;93817.75;2965516;40;20062;-71
2021/07/18 01:30:25;;;;;;;7.05;3.30;;;;;;;23.01;49.80;93823.84;2968962;40;20125;-69
2021/07/18 01:32:27;;;;;;;7.72;3.35;;;;;;;22.85;50.34;93817.59;2964999;40;20516;-69
2021/07/18 01:34:29;;;;;;;6.72;3.88;;;;;;;22.70;50.50;93823.63;2965420;40;20138;-69
2021/07/18 01:36:31;;;;;;;4.13;2.85;;;;;;;22.73;50.33;93819.63;2958185;40;20052;-69
2021/07/18 01:38:32;;;;;;;6.90;3.47;;;;;;;22.68;50.64;93822.28;2947736;40;20737;-69
2021/07/18 01:40:34;;;;;;;7.63;3.42;;;;;;;22.62;50.67;93817.94;2965287;40;20106;-68
2021/07/18 01:42:40;;;;;;;4.45;3.30;;;;;;;22.66;50.57;93824.38;2966649;40;20076;-69
2021/07/18 01:44:43;;;;;;;4.25;2.90;;;;;;;22.79;50.57;93821.28;2966868;40;20059;-69
2021/07/18 01:46:45;;;;;;;6.82;3.40;;;;;;;22.95;49.73;93822.22;2966604;40;20048;-68
2021/07/18 01:48:51;;;;;;;5.03;3.00;;;;;;;23.06;49.62;93812.41;2965859;40;20333;-70
2021/07/18 01:50:53;;;;;;;6.68;2.65;;;;;;;23.17;49.47;93814.06;2967961;40;20137;-70
2021/07/18 01:52:55;;;;;;;5.47;2.70;;;;;;;23.26;49.14;93809.03;2967871;40;20060;-69
2021/07/18 01:54:57;;;;;;;4.70;3.30;;;;;;;23.14;49.24;93809.25;2969895;40;20062;-68
2021/07/18 01:57:10;;;;;;;5.25;2.92;;;;;;;23.03;49.81;93815.59;2965546;40;20070;-68
2021/07/18 01:59:12;;;;;;;4.45;3.03;;;;;;;22.90;50.06;93820.28;2965793;40;20421;-69
2021/07/18 02:01:15;;;;;;;6.20;3.15;;;;;;;22.87;49.92;93814.66;2968257;40;20100;-69
2021/07/18 02:03:17;;;;;;;4.27;2.93;;;;;;;22.85;50.07;93820.25;2967765;40;20136;-68
2021/07/18 02:05:20;;;;;;;6.63;2.83;;;;;;;22.89;50.12;93817.88;2965324;40;20129;-68
2021/07/18 02:07:26;;;;;;;5.65;2.47;;;;;;;22.86;50.14;93821.06;2964546;40;20094;-69
2021/07/18 02:09:28;;;;;;;3.30;2.78;;;;;;;22.83;49.95;93819.72;2960570;40;20049;-68
2021/07/18 02:11:30;;;;;;;3.25;2.75;;;;;;;22.89;49.83;93820.56;2963290;40;20432;-69
2021/07/18 02:13:32;;;;;;;4.85;2.92;;;;;;;22.87;50.08;93812.00;2964083;40;20078;-67
2021/07/18 02:15:34;;;;;;;6.97;2.50;;;;;;;22.85;50.18;93808.78;2966108;40;20056;-69
2021/07/18 02:17:36;;;;;;;7.53;2.67;;;;;;;22.92;50.09;93819.22;2964513;40;20142;-69
2021/07/18 02:19:37;;;;;;;7.40;2.95;;;;;;;22.90;49.88;93814.13;2966042;40;20048;-69
2021/07/18 02:21:40;;;;;;;3.75;2.70;;;;;;;22.97;49.81;93817.38;2963281;40;20141;-67
2021/07/18 02:23:42;;;;;;;6.18;3.00;;;;;;;22.99;49.53;93822.47;2966598;40;20379;-68
2021/07/18 02:25:44;;;;;;;4.75;2.90;;;;;;;22.99;49.71;93814.47;2964894;40;20076;-68
2021/07/18 02:27:46;;;;;;;5.40;3.15;;;;;;;23.01;49.71;93813.16;2962854;40;20409;-67
2021/07/18 02:29:48;;;;;;;4.47;2.80;;;;;;;23.04;49.77;93820.69;2965153;40;20044;-68
2021/07/18 02:31:56;;;;;;;6.35;3.38;;;;;;;22.96;49.55;93823.81;2958537;40;20407;-69
2021/07/18 02:33:58;;;;;;;5.55;3.00;;;;;;;22.98;50.00;93821.69;2965432;40;20068;-69
2021/07/18 02:36:02;;;;;;;5.55;2.80;;;;;;;23.03;49.61;93816.38;2965915;40;20061;-69
2021/07/18 02:38:04;;;;;;;;;;;;;;;23.03;49.87;93826.28;2953428;40;20054;-82
2021/07/18 02:40:06;;;;;;;5.47;3.50;;;;;;;22.88;50.06;93822.41;2971278;40;19932;-81
2021/07/18 02:42:08;;;;;;;4.85;2.95;;;;;;;22.84;50.33;93821.34;2971740;40;20068;-81
2021/07/18 02:44:10;;;;;;;4.18;2.90;;;;;;;22.82;50.15;93818.09;2965416;40;20352;-81
2021/07/18 02:46:12;;;;;;;4.65;2.75;;;;;;;22.84;50.27;93828.50;2969543;40;20132;-80
2021/07/18 02:48:14;;;;;;;4.90;3.15;;;;;;;22.60;50.97;93823.53;2969550;40;20044;-83
2021/07/18 02:50:22;;;;;;;6.88;3.25;;;;;;;22.67;50.74;93820.66;2964010;40;20563;-82
2021/07/18 02:52:24;;;;;;;4.32;2.72;;;;;;;22.76;50.64;93824.47;2966781;40;20326;-81
2021/07/18 02:54:26;;;;;;;8.38;2.88;;;;;;;22.81;50.58;93832.50;2961668;40;20243;-82
2021/07/18 02:56:28;;;;;;;7.72;3.20;;;;;;;22.82;50.39;93833.31;2966707;40;20080;-82
2021/07/18 02:58:30;;;;;;;4.18;2.88;;;;;;;22.83;50.45;93830.38;2966694;40;20064;-81
2021/07/18 03:00:31;;;;;;;6.10;3.30;;;;;;;22.77;50.63;93836.75;2965651;40;20412;-81
2021/07/18 03:02:33;;;;;;;4.13;3.22;;;;;;;22.77;50.60;93838.63;2963939;40;20141;-81
2021/07/18 03:04:53;;;;;;;5.97;3.15;;;;;;;22.64;50.76;93837.97;2968298;40;20064;-81
2021/07/18 03:06:56;;;;;;;4.30;2.78;;;;;;;22.70;50.82;93841.50;2965285;40;20436;-82
2021/07/18 03:08:58;;;;;;;8.15;3.30;;;;;;;22.67;50.52;93839.34;2961907;40;20067;-81
2021/07/18 03:11:00;;;;;;;5.63;3.47;;;;;;;22.56;51.24;93838.44;2961493;40;20053;-80
2021/07/18 03:13:01;;;;;;;6.07;3.28;;;;;;;22.66;51.17;93838.53;2969911;40;20252;-81
2021/07/18 03:15:05;;;;;;;5.38;3.17;;;;;;;22.49;51.34;93837.88;2970382;40;20148;-81
2021/07/18 03:17:07;;;;;;;7.22;3.17;;;;;;;22.58;50.87;93843.53;2966037;40;20076;-81
2021/07/18 03:19:09;;;;;;;5.03;3.13;;;;;;;22.68;51.01;93848.97;2969973;40;20056;-80
2021/07/18 03:21:11;;;;;;;5.97;4.17;;;;;;;22.73;50.75;93837.53;2962231;40;20045;-82
2021/07/18 03:23:13;;;;;;;5.72;3.30;;;;;;;22.66;50.78;93840.41;2972414;40;20383;-82
2021/07/18 03:25:16;;;;;;;6.13;3.35;;;;;;;22.63;51.09;93836.38;2967705;40;20056;-83
2021/07/18 03:27:18;;;;;;;6.63;4.05;;;;;;;22.62;51.14;93839.31;2956376;40;20808;-82
2021/07/18 03:29:20;;;;;;;6.28;3.67;;;;;;;22.72;50.68;93844.72;2960795;40;20295;-81
2021/07/18 03:31:21;;;;;;;3.70;3.15;;;;;;;22.70;50.64;93852.19;2960846;40;20518;-82
2021/07/18 03:33:23;;;;;;;5.03;3.58;;;;;;;22.81;50.35;93853.06;2968695;40;20052;-81
2021/07/18 03:35:25;;;;;;;6.22;3.60;;;;;;;22.84;50.41;93853.38;2970301;40;20052;-82
2021/07/18 03:37:28;;;;;;;6.97;3.40;;;;;;;22.90;50.13;93849.66;2969581;40;20052;-81
2021/07/18 03:39:29;;;;;;;9.63;4.00;;;;;;;22.92;50.26;93846.72;2965069;40;20088;-80
2021/07/18 03:41:32;;;;;;;4.90;3.60;;;;;;;22.79;50.73;93847.19;2972619;40;20405;-81
2021/07/18 03:43:34;;;;;;;6.47;3.35;;;;;;;22.76;50.76;93856.50;2969732;40;20080;-82
2021/07/18 03:45:35;;;;;;;4.22;3.53;;;;;;;22.85;50.41;93851.50;2962475;40;20060;-82
2021/07/18 03:47:37;;;;;;;6.03;3.97;;;;;;;22.82;50.90;93852.81;2968086;40;20045;-81
2021/07/18 03:49:39;;;;;;;7.68;3.72;;;;;;;22.86;50.36;93845.09;2958378;40;20052;-82
2021/07/18 03:51:41;;;;;;;9.27;3.80;;;;;;;22.85;50.47;93846.97;2967964;40;20103;-81
2021/07/18 03:53:43;;;;;;;6.40;3.67;;;;;;;23.01;50.35;93849.75;2968064;40;20601;-84
2021/07/18 03:55:45;;;;;;;4.68;3.35;;;;;;;23.06;49.79;93844.47;2967281;40;20072;-82
2021/07/18 03:57:46;;;;;;;6.88;3.85;;;;;;;23.16;49.97;93841.03;2972750;40;20416;-82
2021/07/18 03:59:50;;;;;;;4.50;3.00;;;;;;;23.27;49.37;93843.53;2971635;40;20064;-82
2021/07/18 04:01:52;;;;;;;10.63;3.95;;;;;;;23.24;49.66;93844.03;2971649;40;20046;-81
2021/07/18 04:03:54;;;;;;;5.72;3.40;;;;;;;23.36;49.50;93851.03;2968974;40;20116;-83
2021/07/18 04:05:56;;;;;;;9.13;3.58;;;;;;;23.45;49.00;93838.81;2968482;40;20051;-82
2021/07/18 04:07:58;;;;;;;4.25;3.00;;;;;;;23.53;48.93;93843.63;2964576;40;20133;-80
2021/07/18 04:10:04;;;;;;;5.40;3.22;;;;;;;23.67;48.72;93847.44;2968901;40;20397;-81
2021/07/18 04:12:06;;;;;;;5.45;2.97;;;;;;;23.80;48.33;93840.06;2964152;40;20403;-70
2021/07/18 04:14:07;;;;;;;4.18;2.70;;;;;;;23.77;48.03;93846.72;2967913;39;20089;-69
2021/07/18 04:16:09;;;;;;;5.00;2.85;;;;;;;23.87;48.52;93848.63;2965402;40;20057;-69
2021/07/18 04:18:11;;;;;;;5.28;3.13;;;;;;;23.95;48.06;93844.66;2968986;40;20063;-69
2021/07/18 04:20:13;;;;;;;3.80;3.03;;;;;;;24.04;48.15;93856.44;2963726;40;20056;-68
2021/07/18 04:22:15;;;;;;;4.40;2.92;;;;;;;24.05;48.07;93850.84;2967109;40;20118;-69
2021/07/18 04:24:17;;;;;;;4.75;3.15;;;;;;;24.04;48.29;93865.25;2964147;40;20059;-69
2021/07/18 04:26:19;;;;;;;4.80;2.90;;;;;;;23.92;48.36;93870.06;2958555;40;20122;-70
2021/07/18 04:28:20;;;;;;;5.10;3.00;;;;;;;23.92;48.50;93867.38;2959629;40;20059;-69
2021/07/18 04:30:22;;;;;;;6.43;3.40;;;;;;;23.94;48.62;93865.25;2967039;40;20044;-70
2021/07/18 04:32:24;;;;;;;8.57;2.72;;;;;;;24.01;48.34;93875.69;2966760;40;20181;-81
2021/07/18 04:34:26;;;;;;;4.15;2.92;;;;;;;24.08;48.39;93871.69;2965774;40;20057;-80
2021/07/18 04:36:28;;;;;;;6.47;3.10;;;;;;;24.22;48.15;93871.19;2958611;40;20084;-81
2021/07/18 04:38:29;;;;;;;4.57;3.20;;;;;;;24.32;47.89;93876.56;2960340;40;20129;-82
2021/07/18 04:40:31;;;;;;;7.88;3.17;;;;;;;24.41;47.94;93874.19;2969241;40;20517;-82
2021/07/18 04:42:33;;;;;;;5.50;3.22;;;;;;;24.51;47.67;93874.22;2965329;40;20121;-82
2021/07/18 04:44:34;;;;;;;5.50;3.33;;;;;;;24.52;47.53;93875.81;2968166;40;20056;-82
2021/07/18 04:46:37;;;;;;;9.85;3.30;;;;;;;24.60;47.66;93877.19;2971314;40;20080;-81
2021/07/18 04:48:39;;;;;;;5.32;2.78;;;;;;;24.69;47.30;93875.56;2969818;40;20133;-83
2021/07/18 04:50:40;;;;;;;7.07;3.33;;;;;;;24.76;47.32;93875.31;2968459;40;20056;-81
2021/07/18 04:52:42;;;;;;;7.10;3.20;;;;;;;24.83;47.12;93865.16;2970743;40;20145;-83
2021/07/18 04:54:44;;;;;;;6.07;3.10;;;;;;;24.90;46.94;93868.34;2970337;40;20395;-82
2021/07/18 04:56:46;;;;;;;3.67;2.88;;;;;;;24.93;47.00;93870.53;2972048;40;20128;-81
2021/07/18 04:58:48;;;;;;;6.00;2.90;;;;;;;24.99;46.53;93873.97;2960331;40;20078;-69
2021/07/18 05:00:50;;;;;;;5.65;3.15;;;;;;;24.92;46.78;93874.25;2967544;40;20052;-68
2021/07/18 05:02:52;;;;;;;5.50;2.83;;;;;;;24.98;46.91;93875.06;2960665;40;20117;-68
2021/07/18 05:04:54;;;;;;;4.47;3.38;;;;;;;25.12;46.58;93878.78;2968481;40;20051;-69
2021/07/18 05:06:56;;;;;;;7.88;3.55;;;;;;;25.04;46.95;93882.84;2964218;40;20051;-68
2021/07/18 05:08:57;;;;;;;6.30;3.40;;;;;;;24.65;48.35;93879.84;2969090;40;20139;-69
2021/07/18 05:11:00;;;;;;;4.95;3.17;;;;;;;24.61;48.70;93874.25;2964697;40;20661;-69
2021/07/18 05:13:02;;;;;;;5.72;3.28;;;;;;;24.55;48.75;93886.03;2959492;40;20455;-70
2021/07/18 05:15:05;;;;;;;8.75;4.00;;;;;;;24.50;48.76;93884.16;2966332;40;20140;-70
2021/07/18 05:17:07;;;;;;;6.63;3.83;;;;;;;24.66;48.56;93884.97;2959180;40;20444;-69
2021/07/18 05:19:09;;;;;;;7.82;3.85;;;;;;;24.78;48.27;93884.72;2968933;40;20056;-67
2021/07/18 05:21:10;;;;;;;6.25;3.63;;;;;;;24.94;47.97;93890.88;2969521;40;20072;-68
2021/07/18 05:23:12;;;;;;;6.70;3.80;;;;;;;25.07;47.34;93889.53;2956643;40;20097;-69
2021/07/18 05:25:14;;;;;;;8.75;4.13;;;;;;;25.12;47.37;93886.81;2955195;40;20110;-67
2021/07/18 05:27:16;;;;;;;8.50;4.05;;;;;;;24.96;47.28;93893.28;2963402;40;20037;-69
2021/07/18 05:29:18;;;;;;;7.43;3.42;;;;;;;24.96;48.08;93888.72;2963277;40;20057;-69
2021/07/18 05:31:20;;;;;;;6.30;3.50;;;;;;;24.93;48.05;93897.31;2962305;40;20120;-68
2021/07/18 05:33:22;;;;;;;7.18;4.05;;;;;;;24.83;48.47;93899.97;2961520;40;20064;-70
2021/07/18 05:35:24;;;;;;;6.70;3.55;;;;;;;24.60;49.06;93901.28;2969292;40;20156;-69
2021/07/18 05:37:25;;;;;;;5.38;3.20;;;;;;;24.52;49.65;93899.91;2963682;40;20084;-69
2021/07/18 05:39:27;;;;;;;5.78;3.35;;;;;;;24.52;49.42;93906.09;2969738;40;20052;-70
2021/07/18 05:41:29;;;;;;;7.82;3.60;;;;;;;24.53;49.16;93904.22;2966139;40;20410;-67
2021/07/18 05:43:30;;;;;;;5.00;3.40;;;;;;;24.66;49.25;93901.03;2971379;40;20107;-83
2021/07/18 05:45:32;;;;;;;5.30;3.38;;;;;;;24.62;49.58;93905.31;2968172;40;20055;-81
2021/07/18 05:47:34;;;;;;;5.38;3.70;;;;;;;24.68;49.51;93898.09;2968050;40;20055;-83
2021/07/18 05:49:37;;;;;;;5.80;3.33;;;;;;;24.86;49.12;93902.09;2970599;40;20056;-81
2021/07/18 05:51:38;;;;;;;6.00;3.60;;;;;;;24.68;49.07;93896.22;2967473;40;20062;-83
2021/07/18 05:53:43;;;;;;;5.50;3.47;;;;;;;24.92;48.39;93899.16;2971058;40;20329;-84
2021/07/18 05:55:47;;;;;;;10.38;3.47;;;;;;;25.07;48.44;93900.25;2966906;40;20060;-83
2021/07/18 05:57:53;;;;;;;4.18;3.03;;;;;;;25.10;47.84;93905.06;2962649;40;20056;-82
2021/07/18 05:59:55;;;;;;;5.03;3.55;;;;;;;25.32;47.45;93889.53;2966994;40;20103;-84
2021/07/18 06:01:57;;;;;;;7.07;3.67;;;;;;;25.61;47.22;93893.50;2968191;40;20096;-80
2021/07/18 06:03:59;;;;;;;9.55;3.45;;;;;;;25.84;46.49;93895.56;2974694;40;20084;-82
2021/07/18 06:06:01;;;;;;;3.97;3.00;;;;;;;26.00;45.42;93896.31;2968022;40;20088;-82
2021/07/18 06:08:03;;;;;;;6.35;3.90;;;;;;;26.05;45.60;93899.00;2965201;40;20336;-83
2021/07/18 06:10:06;;;;;;;4.95;3.55;;;;;;;26.13;45.12;93894.94;2965823;40;20142;-83
2021/07/18 06:12:08;;;;;;;8.48;3.30;;;;;;;26.19;44.42;93890.34;2966333;40;20044;-84
2021/07/18 06:14:10;;;;;;;8.82;3.72;;;;;;;26.10;45.52;93892.81;2970646;40;20056;-84
2021/07/18 06:16:12;;;;;;;6.35;3.67;;;;;;;26.22;44.75;93887.94;2970034;40;20618;-81
2021/07/18 06:18:14;;;;;;;7.22;3.88;;;;;;;26.36;44.37;93894.28;2962056;40;20048;-70
2021/07/18 06:20:15;;;;;;;6.55;3.47;;;;;;;26.35;44.82;93897.25;2967490;40;20063;-67
2021/07/18 06:22:17;;;;;;;7.10;4.10;;;;;;;26.29;44.87;93893.00;2969899;40;20036;-69
2021/07/18 06:24:19;;;;;;;5.78;4.00;;;;;;;26.31;44.90;93891.63;2966762;40;20122;-80
2021/07/18 06:26:21;;;;;;;4.97;3.30;;;;;;;26.43;44.53;93895.84;2969418;40;20100;-82
2021/07/18 06:28:22;;;;;;;7.22;3.72;;;;;;;26.45;43.89;93889.13;2966035;40;20129;-82
2021/07/18 06:30:24;;;;;;;8.18;3.63;;;;;;;26.49;44.03;93889.38;2970544;40;20121;-81
2021/07/18 06:32:27;;;;;;;7.45;4.07;;;;;;;26.48;44.10;93885.06;2969393;40;20056;-83
2021/07/18 06:34:29;;;;;;;4.22;3.55;;;;;;;26.47;44.43;93886.16;2964725;40;20056;-81
2021/07/18 06:36:31;;;;;;;14.00;4.35;;;;;;;26.57;44.23;93882.66;2963660;40;20190;-82
2021/07/18 06:38:35;;;;;;;7.28;3.60;;;;;;;26.75;43.69;93885.47;2968216;40;20413;-81
2021/07/18 06:40:37;;;;;;;9.40;4.38;;;;;;;26.81;43.73;93880.84;2968449;40;20056;-83
2021/07/18 06:42:39;;;;;;;6.68;4.05;;;;;;;26.86;43.93;93885.38;2969319;40;20088;-82
2021/07/18 06:44:43;;;;;;;7.05;4.13;;;;;;;26.69;44.21;93888.47;2971745;40;20064;-82
2021/07/18 06:46:45;;;;;;;8.65;4.63;;;;;;;26.76;44.17;93883.59;2970418;40;20126;-82
2021/07/18 06:48:47;;;;;;;10.88;4.00;;;;;;;26.82;43.71;93879.75;2970296;40;20052;-80
2021/07/18 06:50:48;;;;;;;7.85;4.40;;;;;;;26.80;43.92;93873.88;2968636;40;20056;-84
2021/07/18 06:52:50;;;;;;;8.52;4.13;;;;;;;26.84;43.84;93874.13;2971606;40;20061;-82
2021/07/18 06:54:52;;;;;;;5.13;4.13;;;;;;;26.94;43.39;93879.41;2953181;40;20045;-81
2021/07/18 06:56:54;;;;;;;6.95;4.53;;;;;;;27.02;43.47;93864.56;2967749;40;20085;-82
2021/07/18 06:58:58;;;;;;;7.10;4.38;;;;;;;27.05;43.16;93864.00;2967166;40;20096;-80
2021/07/18 07:00:59;;;;;;;5.18;4.50;;;;;;;27.12;43.50;93859.88;2968414;40;20387;-84
2021/07/18 07:03:01;;;;;;;7.20;4.10;;;;;;;27.18;43.44;93860.66;2959111;40;20044;-83
2021/07/18 07:05:04;;;;;;;5.43;4.05;;;;;;;27.27;42.97;93858.97;2968449;40;20344;-82
2021/07/18 07:07:06;;;;;;;12.27;4.63;;;;;;;27.21;43.13;93862.78;2962400;40;20341;-84
2021/07/18 07:09:08;;;;;;;8.88;4.53;;;;;;;27.31;42.79;93868.09;2965367;40;20101;-84
2021/07/18 07:11:09;;;;;;;8.48;4.20;;;;;;;27.39;42.85;93857.81;2968189;40;20063;-80
2021/07/18 07:13:11;;;;;;;6.65;4.53;;;;;;;27.43;42.72;93866.91;2969685;40;20078;-82
2021/07/18 07:15:13;;;;;;;7.45;4.18;;;;;;;27.52;41.94;93863.31;2969564;40;20389;-81
2021/07/18 07:17:19;;;;;;;9.38;4.78;;;;;;;27.57;42.13;93860.53;2964858;40;20092;-82
2021/07/18 07:19:20;;;;;;;8.88;4.55;;;;;;;27.60;42.04;93864.59;2969404;40;20385;-84
2021/07/18 07:21:22;;;;;;;9.18;4.65;;;;;;;27.54;41.92;93861.13;2971812;40;20080;-80
2021/07/18 07:23:24;;;;;;;7.72;4.07;;;;;;;27.62;42.02;93865.09;2976905;40;20085;-82
2021/07/18 07:25:26;;;;;;;7.65;4.57;;;;;;;27.43;42.03;93867.72;2969595;40;20334;-80
2021/07/18 07:27:28;;;;;;;6.82;4.53;;;;;;;27.36;42.42;93859.97;2967933;40;20213;-83
2021/07/18 07:29:29;;;;;;;10.93;4.60;;;;;;;27.36;42.48;93862.66;2958255;40;20060;-85
2021/07/18 07:31:31;;;;;;;4.78;4.00;;;;;;;27.43;42.39;93864.22;2967341;40;20396;-82
2021/07/18 07:33:33;;;;;;;5.18;3.80;;;;;;;27.56;42.25;93856.28;2968579;40;20059;-85
2021/07/18 07:35:35;;;;;;;7.18;4.47;;;;;;;27.71;42.02;93855.31;2967674;40;20100;-84
2021/07/18 07:37:37;;;;;;;8.45;4.43;;;;;;;27.77;41.79;93854.16;2968355;40;20053;-85
2021/07/18 07:39:40;;;;;;;4.85;3.97;;;;;;;27.68;41.48;93850.47;2968693;40;20475;-84
2021/07/18 07:41:42;;;;;;;10.10;4.20;;;;;;;27.68;40.71;93850.47;2968696;40;20282;-86
2021/07/18 07:43:44;;;;;;;7.57;4.13;;;;;;;27.67;40.77;93845.41;2963627;40;20084;-70
2021/07/18 07:45:46;;;;;;;6.10;3.58;;;;;;;27.56;41.09;93842.03;2960509;40;20146;-69
2021/07/18 07:47:47;;;;;;;6.63;4.10;;;;;;;27.65;41.33;93851.06;2968441;40;20050;-69
2021/07/18 07:49:49;;;;;;;6.78;4.28;;;;;;;27.69;41.21;93846.72;2968980;40;20048;-70
2021/07/18 07:51:51;;;;;;;8.40;4.18;;;;;;;27.22;41.90;93844.81;2966452;40;20074;-70
2021/07/18 07:53:53;;;;;;;10.65;3.97;;;;;;;27.28;41.90;93847.16;2957959;40;20145;-70
2021/07/18 07:55:55;;;;;;;8.65;4.38;;;;;;;27.50;42.01;93851.22;2961030;40;20144;-71
2021/07/18 07:57:57;;;;;;;7.72;3.78;;;;;;;27.56;41.66;93834.75;2966656;40;20141;-71
2021/07/18 07:59:58;;;;;;;7.60;4.35;;;;;;;27.51;41.38;93834.81;2967083;40;20061;-70
2021/07/18 08:02:01;;;;;;;9.48;4.00;;;;;;;27.66;41.61;93833.03;2967069;40;20049;-71
2021/07/18 08:04:04;;;;;;;11.52;4.45;;;;;;;27.56;41.43;93837.44;2967318;40;20046;-69
2021/07/18 08:06:10;;;;;;;6.63;4.60;;;;;;;27.63;41.51;93839.78;2968284;40;20401;-70
2021/07/18 08:08:12;;;;;;;7.97;3.97;;;;;;;27.33;42.35;93830.16;2964750;40;20072;-70
2021/07/18 08:10:34;;;;;;;10.48;4.15;;;;;;;27.71;42.16;93824.91;2960350;40;20033;-69
2021/07/18 08:12:36;;;;;;;6.53;4.47;;;;;;;27.70;42.54;93826.78;2960765;40;20053;-69
2021/07/18 08:14:38;;;;;;;7.53;4.03;;;;;;;27.93;41.45;93824.38;2969123;40;20145;-69
2021/07/18 08:16:40;;;;;;;8.20;3.80;;;;;;;27.99;40.85;93820.53;2964527;40;20037;-69
2021/07/18 08:18:41;;;;;;;7.03;4.97;;;;;;;28.15;40.73;93826.50;2965397;40;20168;-69
2021/07/18 08:20:43;;;;;;;8.00;4.45;;;;;;;28.14;40.82;93825.72;2967303;40;20060;-68
2021/07/18 08:22:46;;;;;;;6.57;3.95;;;;;;;28.06;41.30;93822.88;2966975;40;20050;-68
2021/07/18 08:24:48;;;;;;;;;;;;;;;27.83;41.31;93813.72;2967765;40;20373;-68
2021/07/18 08:26:50;;;;;;;7.50;3.88;;;;;;;27.86;41.95;93819.38;2959629;40;20017;-68
2021/07/18 08:28:51;;;;;;;8.15;4.40;;;;;;;28.09;41.21;93816.91;2967614;40;20412;-69
2021/07/18 08:30:53;;;;;;;9.40;4.40;;;;;;;28.21;40.95;93819.19;2964583;40;20049;-69
2021/07/18 08:32:55;;;;;;;5.65;4.22;;;;;;;28.27;41.36;93812.63;2966888;40;20148;-70
2021/07/18 08:34:59;;;;;;;7.88;4.22;;;;;;;28.50;40.07;93809.09;2967385;40;20060;-69
2021/07/18 08:37:01;;;;;;;5.18;3.65;;;;;;;28.43;40.68;93813.19;2966936;40;20148;-69
2021/07/18 08:39:03;;;;;;;7.30;4.15;;;;;;;28.56;40.43;93813.28;2966431;40;20161;-82
2021/07/18 08:41:05;;;;;;;7.65;3.50;;;;;;;28.29;40.28;93810.44;2965141;40;20466;-82
2021/07/18 08:43:19;;;;;;;9.98;4.32;;;;;;;28.26;40.64;93805.63;2964630;40;20083;-82
2021/07/18 08:45:22;;;;;;;10.73;3.67;;;;;;;28.44;39.97;93804.00;2963554;40;20045;-82
2021/07/18 08:47:24;;;;;;;5.03;3.72;;;;;;;28.54;39.71;93803.91;2970851;40;20152;-82
2021/07/18 08:49:26;;;;;;;10.13;3.63;;;;;;;28.78;39.45;93801.91;2960522;40;20365;-84
2021/07/18 08:51:27;;;;;;;7.25;3.60;;;;;;;28.99;38.54;93798.84;2967396;40;20060;-83
2021/07/18 08:53:29;;;;;;;13.90;8.32;;;;;;;29.10;36.92;93805.69;2969574;40;20060;-81
2021/07/18 08:55:31;;;;;;;8.40;3.55;;;;;;;29.10;36.74;93805.69;2961560;40;20068;-84
2021/07/18 08:57:33;;;;;;;5.63;3.30;;;;;;;29.18;36.99;93796.91;2967181;40;20064;-81
2021/07/18 08:59:35;;;;;;;7.43;3.00;;;;;;;29.38;35.97;93809.25;2960610;40;20060;-85
2021/07/18 09:01:41;;;;;;;3.65;2.70;;;;;;;29.47;35.48;93795.84;2970149;40;20145;-82
2021/07/18 09:03:43;;;;;;;6.95;2.80;;;;;;;29.48;35.23;93797.44;2969778;40;20044;-83
2021/07/18 09:05:46;;;;;;;7.32;2.92;;;;;;;29.32;35.55;93807.72;2970277;40;20052;-82
2021/07/18 09:07:54;;;;;;;4.93;2.92;;;;;;;29.39;35.58;93797.34;2964881;40;20118;-82
2021/07/18 09:10:06;;;;;;;12.07;3.05;;;;;;;29.01;36.04;93793.97;2963182;40;20062;-83
2021/07/18 09:12:09;;;;;;;5.95;3.50;;;;;;;29.20;36.18;93797.41;2959452;40;20187;-83
2021/07/18 09:14:12;;;;;;;5.28;3.42;;;;;;;29.47;35.76;93803.13;2968927;40;20075;-83
2021/07/18 09:16:14;;;;;;;;;;;;;;;29.54;35.78;93795.47;2963306;40;20072;-82
2021/07/18 09:18:17;;;;;;;5.32;3.13;;;;;;;29.50;36.17;93800.63;2962588;40;20308;-84
2021/07/18 09:20:19;;;;;;;;;;;;;;;29.58;36.01;93799.16;2971521;40;20064;-81
2021/07/18 09:22:22;;;;;;;4.78;3.22;;;;;;;29.67;35.71;93785.75;2970587;40;19943;-82
2021/07/18 09:24:25;;;;;;;8.45;3.08;;;;;;;29.79;35.72;93786.88;2970307;40;20064;-82
2021/07/18 09:26:27;;;;;;;4.18;2.85;;;;;;;30.02;34.98;93773.44;2972779;40;20056;-83
2021/07/18 09:28:32;;;;;;;6.85;3.00;;;;;;;30.13;34.80;93785.59;2971711;40;20068;-81
2021/07/18 09:30:34;;;;;;;4.97;2.72;;;;;;;30.25;33.82;93785.06;2956949;40;20104;-82
2021/07/18 09:32:37;;;;;;;6.43;2.85;;;;;;;30.13;33.43;93774.78;2970773;40;20063;-82
2021/07/18 09:34:44;;;;;;;11.70;2.90;;;;;;;29.98;33.90;93785.94;2962630;40;20056;-81
2021/07/18 09:36:47;;;;;;;9.32;2.83;;;;;;;29.87;34.27;93776.47;2968512;40;20044;-83